sensor_id;sensor_type;location;lat;lon;timestamp;P1;durP1;ratioP1;P2;durP2;ratioP2
24407;SDS011;12542;50.924;4.516;2022-12-15T00:03:59;76.20;;;34.90;;
24407;SDS011;12542;50.924;4.516;2022-12-15T00:06:44;64.80;;;28.63;;
24407;SDS011;12542;50.924;4.516;2022-12-15T00:09:28;82.40;;;36.10;;
24407;SDS011;12542;50.924;4.516;2022-12-15T00:12:12;76.88;;;36.50;;
24407;SDS011;12542;50.924;4.516;2022-12-15T00:14:57;84.78;;;37.22;;
24407;SDS011;12542;50.924;4.516;2022-12-15T00:17:41;66.30;;;32.65;;
24407;SDS011;12542;50.924;4.516;2022-12-15T00:20:25;65.85;;;31.65;;
24407;SDS011;12542;50.924;4.516;2022-12-15T00:23:10;54.97;;;26.35;;
24407;SDS011;12542;50.924;4.516;2022-12-15T00:25:55;67.47;;;31.90;;
24407;SDS011;12542;50.924;4.516;2022-12-15T00:28:40;73.22;;;33.38;;
24407;SDS011;12542;50.924;4.516;2022-12-15T00:31:24;70.72;;;32.25;;
24407;SDS011;12542;50.924;4.516;2022-12-15T00:34:08;74.07;;;31.17;;
24407;SDS011;12542;50.924;4.516;2022-12-15T00:39:37;63.05;;;29.63;;
24407;SDS011;12542;50.924;4.516;2022-12-15T00:42:04;73.18;;;29.85;;
24407;SDS011;12542;50.924;4.516;2022-12-15T00:44:31;63.85;;;31.38;;
24407;SDS011;12542;50.924;4.516;2022-12-15T00:46:56;63.70;;;32.28;;
24407;SDS011;12542;50.924;4.516;2022-12-15T00:49:23;71.72;;;32.60;;
24407;SDS011;12542;50.924;4.516;2022-12-15T00:52:09;67.85;;;30.38;;
24407;SDS011;12542;50.924;4.516;2022-12-15T00:54:55;67.30;;;30.63;;
24407;SDS011;12542;50.924;4.516;2022-12-15T00:57:39;69.03;;;30.50;;
24407;SDS011;12542;50.924;4.516;2022-12-15T01:00:24;68.53;;;33.25;;
24407;SDS011;12542;50.924;4.516;2022-12-15T01:03:09;75.93;;;34.30;;
24407;SDS011;12542;50.924;4.516;2022-12-15T01:05:55;72.75;;;34.40;;
24407;SDS011;12542;50.924;4.516;2022-12-15T01:08:39;58.33;;;26.15;;
24407;SDS011;12542;50.924;4.516;2022-12-15T01:11:23;65.65;;;31.50;;
24407;SDS011;12542;50.924;4.516;2022-12-15T01:14:09;67.78;;;32.35;;
24407;SDS011;12542;50.924;4.516;2022-12-15T01:16:53;69.35;;;32.95;;
24407;SDS011;12542;50.924;4.516;2022-12-15T01:19:37;73.82;;;31.65;;
24407;SDS011;12542;50.924;4.516;2022-12-15T01:22:24;75.43;;;32.67;;
24407;SDS011;12542;50.924;4.516;2022-12-15T01:24:50;79.43;;;32.92;;
24407;SDS011;12542;50.924;4.516;2022-12-15T01:27:16;75.00;;;35.33;;
24407;SDS011;12542;50.924;4.516;2022-12-15T01:29:42;83.53;;;36.72;;
24407;SDS011;12542;50.924;4.516;2022-12-15T01:32:08;82.30;;;35.60;;
24407;SDS011;12542;50.924;4.516;2022-12-15T01:34:34;75.47;;;34.80;;
24407;SDS011;12542;50.924;4.516;2022-12-15T01:37:02;79.88;;;37.72;;
24407;SDS011;12542;50.924;4.516;2022-12-15T01:39:28;80.78;;;37.28;;
24407;SDS011;12542;50.924;4.516;2022-12-15T01:42:14;92.28;;;41.20;;
24407;SDS011;12542;50.924;4.516;2022-12-15T01:44:39;87.97;;;38.00;;
24407;SDS011;12542;50.924;4.516;2022-12-15T01:47:06;93.90;;;40.40;;
24407;SDS011;12542;50.924;4.516;2022-12-15T01:49:36;93.30;;;40.60;;
24407;SDS011;12542;50.924;4.516;2022-12-15T01:52:04;91.35;;;39.17;;
24407;SDS011;12542;50.924;4.516;2022-12-15T01:54:38;96.60;;;40.53;;
24407;SDS011;12542;50.924;4.516;2022-12-15T01:57:11;94.10;;;39.58;;
24407;SDS011;12542;50.924;4.516;2022-12-15T01:59:43;81.32;;;35.53;;
24407;SDS011;12542;50.924;4.516;2022-12-15T02:02:15;74.90;;;35.03;;
24407;SDS011;12542;50.924;4.516;2022-12-15T02:04:43;76.68;;;32.08;;
24407;SDS011;12542;50.924;4.516;2022-12-15T02:07:13;69.55;;;29.17;;
24407;SDS011;12542;50.924;4.516;2022-12-15T02:09:40;70.28;;;30.30;;
24407;SDS011;12542;50.924;4.516;2022-12-15T02:12:54;72.53;;;30.38;;
24407;SDS011;12542;50.924;4.516;2022-12-15T02:15:05;53.15;;;22.88;;
24407;SDS011;12542;50.924;4.516;2022-12-15T02:17:43;59.80;;;28.15;;
24407;SDS011;12542;50.924;4.516;2022-12-15T02:31:26;66.93;;;28.60;;
24407;SDS011;12542;50.924;4.516;2022-12-15T02:34:26;63.83;;;26.92;;
24407;SDS011;12542;50.924;4.516;2022-12-15T02:36:57;50.75;;;25.42;;
24407;SDS011;12542;50.924;4.516;2022-12-15T02:39:26;55.38;;;25.60;;
24407;SDS011;12542;50.924;4.516;2022-12-15T02:41:51;54.72;;;26.02;;
24407;SDS011;12542;50.924;4.516;2022-12-15T02:44:28;60.60;;;27.52;;
24407;SDS011;12542;50.924;4.516;2022-12-15T02:52:55;59.50;;;27.75;;
24407;SDS011;12542;50.924;4.516;2022-12-15T02:57:47;63.28;;;25.95;;
24407;SDS011;12542;50.924;4.516;2022-12-15T03:00:18;63.97;;;28.40;;
24407;SDS011;12542;50.924;4.516;2022-12-15T03:02:46;62.30;;;27.33;;
24407;SDS011;12542;50.924;4.516;2022-12-15T03:05:16;58.88;;;26.95;;
24407;SDS011;12542;50.924;4.516;2022-12-15T03:07:48;59.35;;;25.40;;
24407;SDS011;12542;50.924;4.516;2022-12-15T03:10:15;57.85;;;27.92;;
24407;SDS011;12542;50.924;4.516;2022-12-15T03:12:41;63.92;;;27.33;;
24407;SDS011;12542;50.924;4.516;2022-12-15T03:15:07;52.50;;;25.23;;
24407;SDS011;12542;50.924;4.516;2022-12-15T03:17:33;54.20;;;25.02;;
24407;SDS011;12542;50.924;4.516;2022-12-15T03:19:59;45.85;;;22.42;;
24407;SDS011;12542;50.924;4.516;2022-12-15T03:22:26;55.70;;;23.98;;
24407;SDS011;12542;50.924;4.516;2022-12-15T03:24:52;46.85;;;23.58;;
24407;SDS011;12542;50.924;4.516;2022-12-15T03:27:20;49.33;;;22.58;;
24407;SDS011;12542;50.924;4.516;2022-12-15T03:29:46;45.65;;;21.98;;
24407;SDS011;12542;50.924;4.516;2022-12-15T03:32:11;40.97;;;19.73;;
24407;SDS011;12542;50.924;4.516;2022-12-15T03:34:37;43.75;;;21.38;;
24407;SDS011;12542;50.924;4.516;2022-12-15T03:37:03;46.65;;;21.38;;
24407;SDS011;12542;50.924;4.516;2022-12-15T03:39:28;48.88;;;22.83;;
24407;SDS011;12542;50.924;4.516;2022-12-15T03:41:54;48.00;;;21.38;;
24407;SDS011;12542;50.924;4.516;2022-12-15T03:44:20;43.10;;;20.98;;
24407;SDS011;12542;50.924;4.516;2022-12-15T03:46:46;45.55;;;21.02;;
24407;SDS011;12542;50.924;4.516;2022-12-15T03:49:12;37.30;;;19.33;;
24407;SDS011;12542;50.924;4.516;2022-12-15T03:51:38;41.10;;;19.17;;
24407;SDS011;12542;50.924;4.516;2022-12-15T03:54:03;41.90;;;19.70;;
24407;SDS011;12542;50.924;4.516;2022-12-15T03:56:29;41.55;;;20.25;;
24407;SDS011;12542;50.924;4.516;2022-12-15T03:58:56;44.50;;;20.80;;
24407;SDS011;12542;50.924;4.516;2022-12-15T04:01:26;40.42;;;18.58;;
24407;SDS011;12542;50.924;4.516;2022-12-15T04:03:54;46.03;;;19.83;;
24407;SDS011;12542;50.924;4.516;2022-12-15T04:06:20;38.35;;;18.67;;
24407;SDS011;12542;50.924;4.516;2022-12-15T04:08:48;48.65;;;21.60;;
24407;SDS011;12542;50.924;4.516;2022-12-15T04:11:14;41.60;;;20.50;;
24407;SDS011;12542;50.924;4.516;2022-12-15T04:13:40;43.10;;;19.83;;
24407;SDS011;12542;50.924;4.516;2022-12-15T04:16:06;35.72;;;17.77;;
24407;SDS011;12542;50.924;4.516;2022-12-15T04:18:34;40.35;;;20.00;;
24407;SDS011;12542;50.924;4.516;2022-12-15T04:21:00;37.00;;;19.15;;
24407;SDS011;12542;50.924;4.516;2022-12-15T04:23:27;42.47;;;19.48;;
24407;SDS011;12542;50.924;4.516;2022-12-15T04:25:53;44.22;;;19.20;;
24407;SDS011;12542;50.924;4.516;2022-12-15T04:28:37;43.00;;;18.95;;
24407;SDS011;12542;50.924;4.516;2022-12-15T04:31:26;41.55;;;19.65;;
24407;SDS011;12542;50.924;4.516;2022-12-15T04:34:14;40.85;;;19.10;;
24407;SDS011;12542;50.924;4.516;2022-12-15T04:37:01;41.78;;;19.75;;
24407;SDS011;12542;50.924;4.516;2022-12-15T04:39:48;42.30;;;18.95;;
24407;SDS011;12542;50.924;4.516;2022-12-15T04:42:34;42.60;;;18.33;;
24407;SDS011;12542;50.924;4.516;2022-12-15T04:45:23;41.58;;;19.85;;
24407;SDS011;12542;50.924;4.516;2022-12-15T04:48:08;47.13;;;22.77;;
24407;SDS011;12542;50.924;4.516;2022-12-15T04:50:53;44.78;;;22.15;;
24407;SDS011;12542;50.924;4.516;2022-12-15T04:56:22;34.75;;;16.42;;
24407;SDS011;12542;50.924;4.516;2022-12-15T04:59:08;34.70;;;17.70;;
24407;SDS011;12542;50.924;4.516;2022-12-15T05:01:53;42.05;;;19.95;;
24407;SDS011;12542;50.924;4.516;2022-12-15T05:04:37;36.78;;;18.50;;
24407;SDS011;12542;50.924;4.516;2022-12-15T05:07:22;36.70;;;18.98;;
24407;SDS011;12542;50.924;4.516;2022-12-15T05:10:08;36.50;;;17.88;;
24407;SDS011;12542;50.924;4.516;2022-12-15T05:12:52;44.88;;;19.20;;
24407;SDS011;12542;50.924;4.516;2022-12-15T05:15:36;37.97;;;20.00;;
24407;SDS011;12542;50.924;4.516;2022-12-15T05:21:05;45.22;;;18.80;;
24407;SDS011;12542;50.924;4.516;2022-12-15T05:23:50;43.65;;;19.23;;
24407;SDS011;12542;50.924;4.516;2022-12-15T05:26:34;39.58;;;18.98;;
24407;SDS011;12542;50.924;4.516;2022-12-15T05:29:19;41.75;;;18.23;;
24407;SDS011;12542;50.924;4.516;2022-12-15T05:32:04;40.25;;;17.63;;
24407;SDS011;12542;50.924;4.516;2022-12-15T05:34:31;43.05;;;20.48;;
24407;SDS011;12542;50.924;4.516;2022-12-15T05:36:59;41.10;;;19.55;;
24407;SDS011;12542;50.924;4.516;2022-12-15T05:39:26;38.42;;;18.30;;
24407;SDS011;12542;50.924;4.516;2022-12-15T05:41:52;37.40;;;19.25;;
24407;SDS011;12542;50.924;4.516;2022-12-15T05:44:23;43.25;;;18.13;;
24407;SDS011;12542;50.924;4.516;2022-12-15T05:46:49;41.70;;;20.08;;
24407;SDS011;12542;50.924;4.516;2022-12-15T05:49:16;37.70;;;18.40;;
24407;SDS011;12542;50.924;4.516;2022-12-15T05:51:44;40.13;;;19.33;;
24407;SDS011;12542;50.924;4.516;2022-12-15T05:54:48;36.67;;;19.00;;
24407;SDS011;12542;50.924;4.516;2022-12-15T05:57:14;36.67;;;17.23;;
24407;SDS011;12542;50.924;4.516;2022-12-15T05:59:41;45.22;;;19.42;;
24407;SDS011;12542;50.924;4.516;2022-12-15T06:02:06;42.55;;;19.02;;
24407;SDS011;12542;50.924;4.516;2022-12-15T06:04:51;39.42;;;19.27;;
24407;SDS011;12542;50.924;4.516;2022-12-15T06:07:17;49.03;;;22.70;;
24407;SDS011;12542;50.924;4.516;2022-12-15T06:09:44;54.95;;;22.83;;
24407;SDS011;12542;50.924;4.516;2022-12-15T06:12:09;48.83;;;22.05;;
24407;SDS011;12542;50.924;4.516;2022-12-15T06:14:35;44.95;;;21.05;;
24407;SDS011;12542;50.924;4.516;2022-12-15T06:17:01;48.55;;;22.77;;
24407;SDS011;12542;50.924;4.516;2022-12-15T06:19:28;47.15;;;22.27;;
24407;SDS011;12542;50.924;4.516;2022-12-15T06:21:56;50.60;;;20.42;;
24407;SDS011;12542;50.924;4.516;2022-12-15T06:24:21;44.83;;;20.85;;
24407;SDS011;12542;50.924;4.516;2022-12-15T06:26:48;52.15;;;24.77;;
24407;SDS011;12542;50.924;4.516;2022-12-15T06:29:14;53.03;;;21.65;;
24407;SDS011;12542;50.924;4.516;2022-12-15T06:31:40;47.85;;;22.30;;
24407;SDS011;12542;50.924;4.516;2022-12-15T06:34:07;47.85;;;23.38;;
24407;SDS011;12542;50.924;4.516;2022-12-15T06:36:38;48.53;;;22.77;;
24407;SDS011;12542;50.924;4.516;2022-12-15T06:39:05;53.58;;;24.92;;
24407;SDS011;12542;50.924;4.516;2022-12-15T06:41:33;41.00;;;21.33;;
24407;SDS011;12542;50.924;4.516;2022-12-15T06:43:59;50.15;;;22.90;;
24407;SDS011;12542;50.924;4.516;2022-12-15T06:46:25;47.95;;;21.52;;
24407;SDS011;12542;50.924;4.516;2022-12-15T06:48:52;41.67;;;20.20;;
24407;SDS011;12542;50.924;4.516;2022-12-15T06:51:18;44.20;;;22.45;;
24407;SDS011;12542;50.924;4.516;2022-12-15T06:53:45;54.17;;;22.40;;
24407;SDS011;12542;50.924;4.516;2022-12-15T06:56:19;43.78;;;22.73;;
24407;SDS011;12542;50.924;4.516;2022-12-15T06:58:50;42.95;;;21.27;;
24407;SDS011;12542;50.924;4.516;2022-12-15T07:01:18;42.63;;;20.42;;
24407;SDS011;12542;50.924;4.516;2022-12-15T07:03:45;41.30;;;20.05;;
24407;SDS011;12542;50.924;4.516;2022-12-15T07:06:12;42.10;;;19.75;;
24407;SDS011;12542;50.924;4.516;2022-12-15T07:08:40;46.10;;;20.85;;
24407;SDS011;12542;50.924;4.516;2022-12-15T07:11:07;43.83;;;20.38;;
24407;SDS011;12542;50.924;4.516;2022-12-15T07:13:35;43.90;;;20.33;;
24407;SDS011;12542;50.924;4.516;2022-12-15T07:16:02;40.85;;;20.95;;
24407;SDS011;12542;50.924;4.516;2022-12-15T07:18:29;47.45;;;21.27;;
24407;SDS011;12542;50.924;4.516;2022-12-15T07:20:55;54.85;;;23.23;;
24407;SDS011;12542;50.924;4.516;2022-12-15T07:23:26;57.83;;;24.10;;
24407;SDS011;12542;50.924;4.516;2022-12-15T07:25:52;52.92;;;25.23;;
24407;SDS011;12542;50.924;4.516;2022-12-15T07:28:17;68.85;;;30.45;;
24407;SDS011;12542;50.924;4.516;2022-12-15T07:30:43;71.03;;;28.15;;
24407;SDS011;12542;50.924;4.516;2022-12-15T07:33:12;68.28;;;27.08;;
24407;SDS011;12542;50.924;4.516;2022-12-15T07:35:38;67.90;;;29.48;;
24407;SDS011;12542;50.924;4.516;2022-12-15T07:38:07;69.78;;;28.70;;
24407;SDS011;12542;50.924;4.516;2022-12-15T07:40:33;63.92;;;26.88;;
24407;SDS011;12542;50.924;4.516;2022-12-15T07:42:59;64.32;;;27.38;;
24407;SDS011;12542;50.924;4.516;2022-12-15T07:45:25;65.18;;;27.30;;
24407;SDS011;12542;50.924;4.516;2022-12-15T07:47:50;65.60;;;29.27;;
24407;SDS011;12542;50.924;4.516;2022-12-15T07:50:17;60.67;;;28.95;;
24407;SDS011;12542;50.924;4.516;2022-12-15T07:52:44;63.45;;;25.92;;
24407;SDS011;12542;50.924;4.516;2022-12-15T07:55:10;61.88;;;26.75;;
24407;SDS011;12542;50.924;4.516;2022-12-15T07:57:35;59.38;;;28.40;;
24407;SDS011;12542;50.924;4.516;2022-12-15T08:00:02;76.03;;;31.05;;
24407;SDS011;12542;50.924;4.516;2022-12-15T08:02:29;85.20;;;35.42;;
24407;SDS011;12542;50.924;4.516;2022-12-15T08:04:55;66.75;;;29.10;;
24407;SDS011;12542;50.924;4.516;2022-12-15T08:07:21;59.65;;;27.58;;
24407;SDS011;12542;50.924;4.516;2022-12-15T08:09:48;72.70;;;35.10;;
24407;SDS011;12542;50.924;4.516;2022-12-15T08:12:14;64.57;;;29.13;;
24407;SDS011;12542;50.924;4.516;2022-12-15T08:14:41;68.00;;;29.30;;
24407;SDS011;12542;50.924;4.516;2022-12-15T08:17:10;62.13;;;27.92;;
24407;SDS011;12542;50.924;4.516;2022-12-15T08:19:37;59.53;;;28.80;;
24407;SDS011;12542;50.924;4.516;2022-12-15T08:22:02;63.30;;;29.70;;
24407;SDS011;12542;50.924;4.516;2022-12-15T08:24:28;68.03;;;29.55;;
24407;SDS011;12542;50.924;4.516;2022-12-15T08:26:54;63.63;;;28.98;;
24407;SDS011;12542;50.924;4.516;2022-12-15T08:29:20;66.90;;;30.08;;
24407;SDS011;12542;50.924;4.516;2022-12-15T08:31:46;135.35;;;40.40;;
24407;SDS011;12542;50.924;4.516;2022-12-15T08:34:12;70.63;;;30.88;;
24407;SDS011;12542;50.924;4.516;2022-12-15T08:36:37;65.47;;;29.08;;
24407;SDS011;12542;50.924;4.516;2022-12-15T08:39:04;64.22;;;32.45;;
24407;SDS011;12542;50.924;4.516;2022-12-15T08:41:31;63.20;;;32.78;;
24407;SDS011;12542;50.924;4.516;2022-12-15T08:43:58;57.30;;;28.40;;
24407;SDS011;12542;50.924;4.516;2022-12-15T08:46:27;51.55;;;27.00;;
24407;SDS011;12542;50.924;4.516;2022-12-15T08:48:55;52.00;;;27.50;;
24407;SDS011;12542;50.924;4.516;2022-12-15T08:51:22;56.03;;;28.35;;
24407;SDS011;12542;50.924;4.516;2022-12-15T08:53:49;51.42;;;26.55;;
24407;SDS011;12542;50.924;4.516;2022-12-15T08:56:16;45.40;;;25.50;;
24407;SDS011;12542;50.924;4.516;2022-12-15T08:58:44;48.80;;;25.00;;
24407;SDS011;12542;50.924;4.516;2022-12-15T09:01:13;46.60;;;25.23;;
24407;SDS011;12542;50.924;4.516;2022-12-15T09:03:44;42.35;;;24.55;;
24407;SDS011;12542;50.924;4.516;2022-12-15T09:06:14;57.92;;;32.88;;
24407;SDS011;12542;50.924;4.516;2022-12-15T09:08:42;52.05;;;30.60;;
24407;SDS011;12542;50.924;4.516;2022-12-15T09:11:10;51.92;;;30.63;;
24407;SDS011;12542;50.924;4.516;2022-12-15T09:13:37;52.92;;;29.85;;
24407;SDS011;12542;50.924;4.516;2022-12-15T09:16:05;50.15;;;30.48;;
24407;SDS011;12542;50.924;4.516;2022-12-15T09:18:37;46.75;;;28.50;;
24407;SDS011;12542;50.924;4.516;2022-12-15T09:21:05;54.00;;;30.63;;
24407;SDS011;12542;50.924;4.516;2022-12-15T09:23:32;46.40;;;28.00;;
24407;SDS011;12542;50.924;4.516;2022-12-15T09:26:03;46.28;;;26.77;;
24407;SDS011;12542;50.924;4.516;2022-12-15T09:28:37;53.05;;;27.98;;
24407;SDS011;12542;50.924;4.516;2022-12-15T09:31:10;45.78;;;26.13;;
24407;SDS011;12542;50.924;4.516;2022-12-15T09:33:37;42.40;;;23.67;;
24407;SDS011;12542;50.924;4.516;2022-12-15T09:36:04;75.85;;;40.70;;
24407;SDS011;12542;50.924;4.516;2022-12-15T09:38:32;50.33;;;26.95;;
24407;SDS011;12542;50.924;4.516;2022-12-15T09:41:06;51.83;;;27.52;;
24407;SDS011;12542;50.924;4.516;2022-12-15T09:43:33;49.38;;;27.65;;
24407;SDS011;12542;50.924;4.516;2022-12-15T09:46:02;43.38;;;25.67;;
24407;SDS011;12542;50.924;4.516;2022-12-15T09:48:37;47.55;;;27.33;;
24407;SDS011;12542;50.924;4.516;2022-12-15T09:51:07;42.38;;;24.77;;
24407;SDS011;12542;50.924;4.516;2022-12-15T09:53:36;36.65;;;23.58;;
24407;SDS011;12542;50.924;4.516;2022-12-15T09:56:04;49.13;;;29.05;;
24407;SDS011;12542;50.924;4.516;2022-12-15T10:01:17;39.80;;;25.25;;
24407;SDS011;12542;50.924;4.516;2022-12-15T10:04:00;42.50;;;23.88;;
24407;SDS011;12542;50.924;4.516;2022-12-15T10:06:49;38.38;;;22.55;;
24407;SDS011;12542;50.924;4.516;2022-12-15T10:09:35;36.33;;;21.45;;
24407;SDS011;12542;50.924;4.516;2022-12-15T10:12:04;44.03;;;24.88;;
24407;SDS011;12542;50.924;4.516;2022-12-15T10:14:58;32.80;;;19.90;;
24407;SDS011;12542;50.924;4.516;2022-12-15T10:20:20;38.87;;;23.77;;
24407;SDS011;12542;50.924;4.516;2022-12-15T10:22:48;43.20;;;26.77;;
24407;SDS011;12542;50.924;4.516;2022-12-15T10:25:19;42.10;;;24.35;;
24407;SDS011;12542;50.924;4.516;2022-12-15T10:30:31;54.40;;;29.15;;
24407;SDS011;12542;50.924;4.516;2022-12-15T10:33:02;46.72;;;27.42;;
24407;SDS011;12542;50.924;4.516;2022-12-15T10:35:40;47.25;;;26.15;;
24407;SDS011;12542;50.924;4.516;2022-12-15T10:41:24;42.03;;;22.00;;
24407;SDS011;12542;50.924;4.516;2022-12-15T10:43:51;43.25;;;24.00;;
24407;SDS011;12542;50.924;4.516;2022-12-15T10:46:24;45.88;;;23.05;;
24407;SDS011;12542;50.924;4.516;2022-12-15T10:48:52;48.30;;;25.40;;
24407;SDS011;12542;50.924;4.516;2022-12-15T10:56:44;46.42;;;23.45;;
24407;SDS011;12542;50.924;4.516;2022-12-15T11:01:48;44.65;;;23.65;;
24407;SDS011;12542;50.924;4.516;2022-12-15T11:04:24;42.85;;;23.60;;
24407;SDS011;12542;50.924;4.516;2022-12-15T11:06:51;38.28;;;20.85;;
24407;SDS011;12542;50.924;4.516;2022-12-15T11:09:31;36.78;;;20.50;;
24407;SDS011;12542;50.924;4.516;2022-12-15T11:12:11;40.72;;;21.33;;
24407;SDS011;12542;50.924;4.516;2022-12-15T11:15:49;42.45;;;20.33;;
24407;SDS011;12542;50.924;4.516;2022-12-15T11:17:52;42.88;;;21.38;;
24407;SDS011;12542;50.924;4.516;2022-12-15T11:20:32;39.67;;;21.77;;
24407;SDS011;12542;50.924;4.516;2022-12-15T11:23:06;51.03;;;23.42;;
24407;SDS011;12542;50.924;4.516;2022-12-15T11:26:26;46.05;;;22.45;;
24407;SDS011;12542;50.924;4.516;2022-12-15T11:31:42;34.55;;;20.60;;
24407;SDS011;12542;50.924;4.516;2022-12-15T11:34:15;42.20;;;22.17;;
24407;SDS011;12542;50.924;4.516;2022-12-15T11:42:21;43.05;;;22.58;;
24407;SDS011;12542;50.924;4.516;2022-12-15T11:48:12;43.30;;;21.48;;
24407;SDS011;12542;50.924;4.516;2022-12-15T11:59:20;33.20;;;16.63;;
24407;SDS011;12542;50.924;4.516;2022-12-15T12:01:55;47.90;;;22.05;;
24407;SDS011;12542;50.924;4.516;2022-12-15T12:07:45;42.72;;;22.05;;
24407;SDS011;12542;50.924;4.516;2022-12-15T12:13:41;39.85;;;21.48;;
24407;SDS011;12542;50.924;4.516;2022-12-15T12:19:03;51.58;;;22.98;;
24407;SDS011;12542;50.924;4.516;2022-12-15T12:21:46;43.03;;;22.42;;
24407;SDS011;12542;50.924;4.516;2022-12-15T12:29:33;51.38;;;22.73;;
24407;SDS011;12542;50.924;4.516;2022-12-15T12:32:10;50.95;;;22.90;;
24407;SDS011;12542;50.924;4.516;2022-12-15T12:43:01;50.97;;;21.27;;
24407;SDS011;12542;50.924;4.516;2022-12-15T12:45:46;40.00;;;19.83;;
24407;SDS011;12542;50.924;4.516;2022-12-15T12:48:30;43.50;;;21.77;;
24407;SDS011;12542;50.924;4.516;2022-12-15T12:51:11;35.58;;;20.27;;
24407;SDS011;12542;50.924;4.516;2022-12-15T12:53:40;43.33;;;22.00;;
24407;SDS011;12542;50.924;4.516;2022-12-15T12:56:06;43.85;;;22.83;;
24407;SDS011;12542;50.924;4.516;2022-12-15T12:58:51;50.28;;;23.30;;
24407;SDS011;12542;50.924;4.516;2022-12-15T13:04:03;52.55;;;23.65;;
24407;SDS011;12542;50.924;4.516;2022-12-15T13:14:19;45.47;;;23.10;;
24407;SDS011;12542;50.924;4.516;2022-12-15T13:16:53;45.28;;;23.55;;
24407;SDS011;12542;50.924;4.516;2022-12-15T13:22:24;43.75;;;23.05;;
24407;SDS011;12542;50.924;4.516;2022-12-15T13:24:59;44.38;;;23.45;;
24407;SDS011;12542;50.924;4.516;2022-12-15T13:27:35;49.30;;;24.83;;
24407;SDS011;12542;50.924;4.516;2022-12-15T13:32:43;54.35;;;26.80;;
24407;SDS011;12542;50.924;4.516;2022-12-15T13:37:53;47.28;;;24.40;;
24407;SDS011;12542;50.924;4.516;2022-12-15T13:42:55;40.40;;;23.60;;
24407;SDS011;12542;50.924;4.516;2022-12-15T13:45:43;45.83;;;23.75;;
24407;SDS011;12542;50.924;4.516;2022-12-15T13:53:27;44.17;;;24.17;;
24407;SDS011;12542;50.924;4.516;2022-12-15T13:56:16;44.83;;;23.88;;
24407;SDS011;12542;50.924;4.516;2022-12-15T13:59:04;50.67;;;24.45;;
24407;SDS011;12542;50.924;4.516;2022-12-15T14:01:37;51.88;;;24.88;;
24407;SDS011;12542;50.924;4.516;2022-12-15T14:04:14;51.13;;;25.48;;
24407;SDS011;12542;50.924;4.516;2022-12-15T14:07:14;45.13;;;24.42;;
24407;SDS011;12542;50.924;4.516;2022-12-15T14:09:38;49.63;;;24.73;;
24407;SDS011;12542;50.924;4.516;2022-12-15T14:12:07;45.25;;;24.27;;
24407;SDS011;12542;50.924;4.516;2022-12-15T14:14:45;46.50;;;24.63;;
24407;SDS011;12542;50.924;4.516;2022-12-15T14:17:15;57.45;;;25.35;;
24407;SDS011;12542;50.924;4.516;2022-12-15T14:19:44;49.35;;;24.42;;
24407;SDS011;12542;50.924;4.516;2022-12-15T14:22:30;59.60;;;24.02;;
24407;SDS011;12542;50.924;4.516;2022-12-15T14:25:38;50.25;;;24.27;;
24407;SDS011;12542;50.924;4.516;2022-12-15T14:27:54;50.67;;;22.90;;
24407;SDS011;12542;50.924;4.516;2022-12-15T14:30:28;41.60;;;22.60;;
24407;SDS011;12542;50.924;4.516;2022-12-15T14:32:59;44.30;;;23.88;;
24407;SDS011;12542;50.924;4.516;2022-12-15T14:35:41;57.58;;;24.17;;
24407;SDS011;12542;50.924;4.516;2022-12-15T14:38:20;48.58;;;24.30;;
24407;SDS011;12542;50.924;4.516;2022-12-15T14:41:07;44.10;;;24.17;;
24407;SDS011;12542;50.924;4.516;2022-12-15T14:43:46;43.00;;;22.40;;
24407;SDS011;12542;50.924;4.516;2022-12-15T14:46:32;48.00;;;23.55;;
24407;SDS011;12542;50.924;4.516;2022-12-15T14:48:59;47.22;;;22.70;;
24407;SDS011;12542;50.924;4.516;2022-12-15T14:51:28;44.72;;;23.08;;
24407;SDS011;12542;50.924;4.516;2022-12-15T14:53:55;45.75;;;23.83;;
24407;SDS011;12542;50.924;4.516;2022-12-15T14:56:28;48.50;;;23.70;;
24407;SDS011;12542;50.924;4.516;2022-12-15T15:01:57;53.03;;;26.15;;
24407;SDS011;12542;50.924;4.516;2022-12-15T15:04:30;43.97;;;23.52;;
24407;SDS011;12542;50.924;4.516;2022-12-15T15:06:58;47.50;;;24.52;;
24407;SDS011;12542;50.924;4.516;2022-12-15T15:09:32;46.53;;;24.52;;
24407;SDS011;12542;50.924;4.516;2022-12-15T15:12:23;42.05;;;22.45;;
24407;SDS011;12542;50.924;4.516;2022-12-15T15:15:18;41.42;;;23.65;;
24407;SDS011;12542;50.924;4.516;2022-12-15T15:17:50;44.25;;;24.65;;
24407;SDS011;12542;50.924;4.516;2022-12-15T15:23:03;42.88;;;23.13;;
24407;SDS011;12542;50.924;4.516;2022-12-15T15:25:40;46.13;;;26.52;;
24407;SDS011;12542;50.924;4.516;2022-12-15T15:30:50;53.45;;;26.85;;
24407;SDS011;12542;50.924;4.516;2022-12-15T15:33:21;64.03;;;28.10;;
24407;SDS011;12542;50.924;4.516;2022-12-15T15:35:49;57.95;;;27.92;;
24407;SDS011;12542;50.924;4.516;2022-12-15T15:38:37;53.47;;;26.45;;
24407;SDS011;12542;50.924;4.516;2022-12-15T15:43:50;52.53;;;25.50;;
24407;SDS011;12542;50.924;4.516;2022-12-15T15:46:20;63.67;;;29.38;;
24407;SDS011;12542;50.924;4.516;2022-12-15T15:48:58;56.22;;;26.60;;
24407;SDS011;12542;50.924;4.516;2022-12-15T15:51:33;53.75;;;26.63;;
24407;SDS011;12542;50.924;4.516;2022-12-15T15:54:01;58.08;;;27.83;;
24407;SDS011;12542;50.924;4.516;2022-12-15T15:56:29;47.38;;;25.40;;
24407;SDS011;12542;50.924;4.516;2022-12-15T15:58:57;51.88;;;28.05;;
24407;SDS011;12542;50.924;4.516;2022-12-15T16:01:27;61.22;;;29.33;;
24407;SDS011;12542;50.924;4.516;2022-12-15T16:03:53;64.18;;;28.88;;
24407;SDS011;12542;50.924;4.516;2022-12-15T16:06:19;54.28;;;28.70;;
24407;SDS011;12542;50.924;4.516;2022-12-15T16:08:47;59.85;;;28.73;;
24407;SDS011;12542;50.924;4.516;2022-12-15T16:11:16;69.05;;;31.23;;
24407;SDS011;12542;50.924;4.516;2022-12-15T16:13:41;50.85;;;27.88;;
24407;SDS011;12542;50.924;4.516;2022-12-15T16:16:13;67.93;;;30.02;;
24407;SDS011;12542;50.924;4.516;2022-12-15T16:18:45;70.93;;;34.17;;
24407;SDS011;12542;50.924;4.516;2022-12-15T16:21:11;58.50;;;28.77;;
24407;SDS011;12542;50.924;4.516;2022-12-15T16:23:39;62.75;;;27.60;;
24407;SDS011;12542;50.924;4.516;2022-12-15T16:26:09;62.20;;;30.95;;
24407;SDS011;12542;50.924;4.516;2022-12-15T16:28:52;57.80;;;28.77;;
24407;SDS011;12542;50.924;4.516;2022-12-15T16:31:28;57.53;;;30.70;;
24407;SDS011;12542;50.924;4.516;2022-12-15T16:33:56;55.25;;;28.48;;
24407;SDS011;12542;50.924;4.516;2022-12-15T16:36:23;57.90;;;29.55;;
24407;SDS011;12542;50.924;4.516;2022-12-15T16:38:49;60.40;;;32.00;;
24407;SDS011;12542;50.924;4.516;2022-12-15T16:41:15;64.35;;;32.70;;
24407;SDS011;12542;50.924;4.516;2022-12-15T16:43:41;69.05;;;32.00;;
24407;SDS011;12542;50.924;4.516;2022-12-15T16:46:10;63.83;;;30.90;;
24407;SDS011;12542;50.924;4.516;2022-12-15T16:48:36;84.70;;;47.15;;
24407;SDS011;12542;50.924;4.516;2022-12-15T16:51:04;70.82;;;39.85;;
24407;SDS011;12542;50.924;4.516;2022-12-15T16:53:32;69.68;;;35.55;;
24407;SDS011;12542;50.924;4.516;2022-12-15T16:56:02;63.78;;;31.00;;
24407;SDS011;12542;50.924;4.516;2022-12-15T16:58:30;58.80;;;30.15;;
24407;SDS011;12542;50.924;4.516;2022-12-15T17:00:57;57.63;;;31.40;;
24407;SDS011;12542;50.924;4.516;2022-12-15T17:03:23;62.97;;;31.08;;